Time;durP1;ratioP1;P1;durP2;ratioP2;P2;SDS_P1;SDS_P2;PMS_P1;PMS_P2;Temp;Humidity;BMP_temperature;BMP_pressure;BME280_temperature;BME280_humidity;BME280_pressure;Samples;Min_cycle;Max_cycle;Signal;HPM_P1;HPM_P2
2021/04/29 00:01:06;;;;;;;7.95;7.15;;;;;;;;;;3617764;39;20035;-57
2021/04/29 00:03:35;;;;;;;9.02;8.00;;;;;;;;;;3617953;39;20048;-55
2021/04/29 00:06:03;;;;;;;7.95;6.55;;;;;;;;;;3617130;39;20031;-56
2021/04/29 00:08:28;;;;;;;9.18;7.65;;;;;;;;;;3618052;39;20040;-55
2021/04/29 00:10:53;;;;;;;10.38;8.25;;;;;;;;;;3618018;39;20023;-56
2021/04/29 00:13:19;;;;;;;11.55;7.97;;;;;;;;;;3617567;39;20357;-55
2021/04/29 00:15:47;;;;;;;9.30;7.45;;;;;;;;;;3617026;39;20096;-56
2021/04/29 00:18:13;;;;;;;8.88;7.65;;;;;;;;;;3617687;39;20394;-57
2021/04/29 00:20:39;;;;;;;10.50;7.70;;;;;;;;;;3617932;39;20038;-56
2021/04/29 00:23:04;;;;;;;12.32;7.82;;;;;;;;;;3618015;39;20035;-57
2021/04/29 00:25:29;;;;;;;8.93;7.70;;;;;;;;;;3616241;39;20036;-58
2021/04/29 00:27:55;;;;;;;10.13;7.90;;;;;;;;;;3617890;39;20575;-57
2021/04/29 00:30:20;;;;;;;10.20;7.93;;;;;;;;;;3598629;39;20053;-58
2021/04/29 00:32:46;;;;;;;8.43;6.90;;;;;;;;;;3617371;39;20050;-56
2021/04/29 00:35:12;;;;;;;10.48;8.13;;;;;;;;;;3617793;39;20063;-58
2021/04/29 00:37:37;;;;;;;9.68;7.57;;;;;;;;;;3617659;39;20041;-58
2021/04/29 00:40:04;;;;;;;9.30;7.20;;;;;;;;;;3618005;39;20116;-58
2021/04/29 00:42:29;;;;;;;9.85;7.43;;;;;;;;;;3617169;39;20030;-58
2021/04/29 00:44:55;;;;;;;12.93;6.80;;;;;;;;;;3617824;39;20031;-58
2021/04/29 00:47:20;;;;;;;10.32;7.38;;;;;;;;;;3618101;39;20120;-58
2021/04/29 00:49:46;;;;;;;9.40;7.03;;;;;;;;;;3617581;39;20046;-57
2021/04/29 00:52:11;;;;;;;8.27;6.82;;;;;;;;;;3616988;39;20043;-57
2021/04/29 00:54:37;;;;;;;9.68;6.93;;;;;;;;;;3617409;39;20039;-57
2021/04/29 00:57:02;;;;;;;12.65;7.90;;;;;;;;;;3617745;39;20054;-56
2021/04/29 00:59:28;;;;;;;8.38;7.38;;;;;;;;;;3617614;39;20348;-56
2021/04/29 01:02:01;;;;;;;9.30;6.95;;;;;;;;;;3616175;39;20131;-56
2021/04/29 01:04:31;;;;;;;8.75;7.72;;;;;;;;;;3617525;39;20066;-57
2021/04/29 01:07:04;;;;;;;9.50;7.75;;;;;;;;;;3616398;39;20022;-58
2021/04/29 01:09:47;;;;;;;8.82;7.53;;;;;;;;;;3617143;39;20037;-57
2021/04/29 01:12:18;;;;;;;8.52;7.63;;;;;;;;;;3616678;39;20039;-57
2021/04/29 01:14:45;;;;;;;10.80;8.30;;;;;;;;;;3617461;39;20043;-56
2021/04/29 01:17:11;;;;;;;9.48;6.68;;;;;;;;;;3617120;39;20039;-56
2021/04/29 01:19:47;;;;;;;10.00;7.88;;;;;;;;;;3616580;39;20051;-57
2021/04/29 01:22:14;;;;;;;9.38;7.47;;;;;;;;;;3617562;39;20081;-55
2021/04/29 01:25:05;;;;;;;10.35;7.57;;;;;;;;;;3616847;39;20143;-56
2021/04/29 01:27:32;;;;;;;8.88;7.43;;;;;;;;;;3617621;39;20081;-57
2021/04/29 01:30:00;;;;;;;9.20;7.78;;;;;;;;;;3617803;39;20289;-57
2021/04/29 01:32:26;;;;;;;11.38;7.47;;;;;;;;;;3617406;39;20124;-56
2021/04/29 01:34:53;;;;;;;9.75;7.53;;;;;;;;;;3616675;39;20331;-57
2021/04/29 01:37:18;;;;;;;8.10;7.00;;;;;;;;;;3617417;39;20270;-57
2021/04/29 01:39:44;;;;;;;8.00;7.20;;;;;;;;;;3617385;39;20034;-57
2021/04/29 01:42:09;;;;;;;8.77;6.45;;;;;;;;;;3617011;39;20039;-57
2021/04/29 01:44:35;;;;;;;8.77;6.22;;;;;;;;;;3616886;39;20362;-57
2021/04/29 01:47:02;;;;;;;8.35;6.32;;;;;;;;;;3617205;39;20095;-57
2021/04/29 01:49:28;;;;;;;8.77;6.45;;;;;;;;;;3616412;39;20124;-58
2021/04/29 01:51:54;;;;;;;10.55;6.22;;;;;;;;;;3616439;39;20484;-56
2021/04/29 01:54:21;;;;;;;9.35;7.10;;;;;;;;;;3617409;39;20042;-56
2021/04/29 01:56:47;;;;;;;9.82;7.38;;;;;;;;;;3617064;39;20397;-56
2021/04/29 01:59:14;;;;;;;13.38;6.82;;;;;;;;;;3616743;39;20050;-56
2021/04/29 02:01:40;;;;;;;8.75;6.55;;;;;;;;;;3617277;39;20035;-55
2021/04/29 02:04:07;;;;;;;9.40;6.15;;;;;;;;;;3617338;39;20043;-55
2021/04/29 02:06:33;;;;;;;11.88;6.40;;;;;;;;;;3616475;39;20431;-55
2021/04/29 02:08:59;;;;;;;7.68;5.85;;;;;;;;;;3616812;39;20027;-56
2021/04/29 02:11:25;;;;;;;8.10;6.53;;;;;;;;;;3607783;39;20338;-55
2021/04/29 02:13:54;;;;;;;8.98;6.10;;;;;;;;;;3617274;39;20027;-57
2021/04/29 02:16:42;;;;;;;8.93;6.40;;;;;;;;;;3616898;39;20385;-58
2021/04/29 02:19:09;;;;;;;7.82;6.07;;;;;;;;;;3616163;39;20048;-57
2021/04/29 02:21:37;;;;;;;8.60;6.80;;;;;;;;;;3617432;39;20035;-57
2021/04/29 02:24:04;;;;;;;7.47;5.50;;;;;;;;;;3616848;39;20035;-58
2021/04/29 02:26:30;;;;;;;8.82;6.55;;;;;;;;;;3615812;39;20406;-58
2021/04/29 02:28:56;;;;;;;8.90;6.28;;;;;;;;;;3615736;39;20374;-57
2021/04/29 02:31:22;;;;;;;8.48;6.40;;;;;;;;;;3616265;39;20035;-56
2021/04/29 02:33:49;;;;;;;10.48;7.22;;;;;;;;;;3617039;39;20042;-56
2021/04/29 02:36:15;;;;;;;10.68;7.50;;;;;;;;;;3615996;39;20038;-57
2021/04/29 02:38:40;;;;;;;9.55;7.47;;;;;;;;;;3614903;39;20039;-58
2021/04/29 02:41:06;;;;;;;8.65;6.63;;;;;;;;;;3616818;39;20054;-57
2021/04/29 02:43:32;;;;;;;8.30;6.28;;;;;;;;;;3616537;39;20036;-57
2021/04/29 02:45:58;;;;;;;9.82;6.70;;;;;;;;;;3616853;39;20363;-57
2021/04/29 02:48:25;;;;;;;8.35;7.25;;;;;;;;;;3606808;39;20038;-57
2021/04/29 02:50:51;;;;;;;9.20;7.05;;;;;;;;;;3616944;39;20039;-56
2021/04/29 02:53:18;;;;;;;12.00;7.13;;;;;;;;;;3616084;39;20034;-57
2021/04/29 02:55:45;;;;;;;8.48;7.22;;;;;;;;;;3616252;39;20035;-57
2021/04/29 02:58:13;;;;;;;11.15;8.48;;;;;;;;;;3616092;39;20073;-56
2021/04/29 03:00:40;;;;;;;8.25;6.80;;;;;;;;;;3616801;39;20047;-56
2021/04/29 03:03:08;;;;;;;9.18;7.40;;;;;;;;;;3616771;39;20046;-56
2021/04/29 03:05:33;;;;;;;11.13;7.40;;;;;;;;;;3616221;39;20086;-57
2021/04/29 03:07:59;;;;;;;10.07;7.32;;;;;;;;;;3615630;39;20597;-57
2021/04/29 03:10:25;;;;;;;9.25;7.63;;;;;;;;;;3616742;39;20028;-57
2021/04/29 03:12:50;;;;;;;9.13;7.30;;;;;;;;;;3616920;39;20039;-54
2021/04/29 03:15:16;;;;;;;11.55;7.60;;;;;;;;;;3615815;39;20265;-56
2021/04/29 03:17:42;;;;;;;9.18;7.28;;;;;;;;;;3607284;39;20036;-56
2021/04/29 03:20:08;;;;;;;9.05;7.28;;;;;;;;;;3616744;39;20043;-56
2021/04/29 03:22:34;;;;;;;10.90;6.93;;;;;;;;;;3616479;39;20355;-57
2021/04/29 03:25:00;;;;;;;10.00;7.78;;;;;;;;;;3616131;39;20042;-57
2021/04/29 03:27:26;;;;;;;9.63;7.72;;;;;;;;;;3607159;39;20046;-56
2021/04/29 03:29:52;;;;;;;10.35;6.90;;;;;;;;;;3616684;39;20031;-57
2021/04/29 03:32:19;;;;;;;8.60;7.00;;;;;;;;;;3615100;39;20540;-56
2021/04/29 03:34:45;;;;;;;11.60;8.02;;;;;;;;;;3615819;39;20027;-54
2021/04/29 03:37:10;;;;;;;7.63;6.93;;;;;;;;;;3618138;39;20023;-57
2021/04/29 03:39:36;;;;;;;9.35;7.38;;;;;;;;;;3607407;39;20033;-55
2021/04/29 03:42:01;;;;;;;8.77;6.97;;;;;;;;;;3617441;39;20036;-57
2021/04/29 03:44:27;;;;;;;9.48;7.78;;;;;;;;;;3618291;39;20043;-55
2021/04/29 03:46:52;;;;;;;10.45;7.85;;;;;;;;;;3617958;39;20034;-56
2021/04/29 03:49:18;;;;;;;10.27;9.18;;;;;;;;;;3615648;39;20775;-54
2021/04/29 03:51:43;;;;;;;10.13;8.20;;;;;;;;;;3616221;39;20039;-56
2021/04/29 03:54:09;;;;;;;12.35;9.60;;;;;;;;;;3616330;39;20034;-56
2021/04/29 03:56:34;;;;;;;11.13;9.35;;;;;;;;;;3617334;39;20147;-53
2021/04/29 03:59:00;;;;;;;12.57;10.38;;;;;;;;;;3617795;39;20039;-56
2021/04/29 04:01:25;;;;;;;11.45;10.23;;;;;;;;;;3617719;39;20432;-56
2021/04/29 04:03:51;;;;;;;18.63;11.93;;;;;;;;;;3618254;39;20608;-55
2021/04/29 04:06:16;;;;;;;11.38;9.98;;;;;;;;;;3607926;39;20054;-55
2021/04/29 04:08:42;;;;;;;18.42;12.30;;;;;;;;;;3618062;39;20027;-56
2021/04/29 04:11:08;;;;;;;14.60;12.75;;;;;;;;;;3617901;39;20332;-56
2021/04/29 04:13:33;;;;;;;14.82;12.43;;;;;;;;;;3617829;39;20501;-56
2021/04/29 04:15:59;;;;;;;16.30;13.48;;;;;;;;;;3617291;39;20039;-55
2021/04/29 04:18:24;;;;;;;16.10;14.45;;;;;;;;;;3617848;39;20034;-57
2021/04/29 04:20:49;;;;;;;15.98;14.32;;;;;;;;;;3617780;39;20047;-56
2021/04/29 04:23:17;;;;;;;16.38;14.18;;;;;;;;;;3617210;39;20569;-55
2021/04/29 04:25:43;;;;;;;15.75;14.13;;;;;;;;;;3617388;39;20023;-58
2021/04/29 04:28:08;;;;;;;15.00;13.50;;;;;;;;;;3608314;39;20046;-57
2021/04/29 04:30:34;;;;;;;16.48;14.40;;;;;;;;;;3617643;39;20120;-53
2021/04/29 04:32:59;;;;;;;17.08;14.43;;;;;;;;;;3616909;39;20362;-55
2021/04/29 04:35:25;;;;;;;16.70;14.32;;;;;;;;;;3608470;39;20116;-55
2021/04/29 04:37:50;;;;;;;19.25;13.75;;;;;;;;;;3617664;39;20035;-54
2021/04/29 04:40:16;;;;;;;16.98;13.57;;;;;;;;;;3615434;39;20044;-56
2021/04/29 04:42:41;;;;;;;15.40;11.77;;;;;;;;;;3617667;39;20031;-56
2021/04/29 04:45:09;;;;;;;19.65;13.18;;;;;;;;;;3617658;39;20032;-54
2021/04/29 04:47:34;;;;;;;14.02;12.60;;;;;;;;;;3607928;39;20031;-52
2021/04/29 04:50:00;;;;;;;16.48;13.18;;;;;;;;;;3616044;39;20030;-53
2021/04/29 04:52:26;;;;;;;16.05;13.38;;;;;;;;;;3617764;39;20424;-57
2021/04/29 04:54:52;;;;;;;15.73;13.10;;;;;;;;;;3617431;39;20027;-56
2021/04/29 04:57:19;;;;;;;17.27;13.32;;;;;;;;;;3617438;39;20027;-54
2021/04/29 04:59:44;;;;;;;16.05;13.82;;;;;;;;;;3608390;39;20039;-56
2021/04/29 05:02:10;;;;;;;15.10;13.02;;;;;;;;;;3617625;39;20035;-56
2021/04/29 05:04:36;;;;;;;12.57;11.15;;;;;;;;;;3615895;39;20104;-55
2021/04/29 05:07:05;;;;;;;15.57;12.55;;;;;;;;;;3617675;39;20027;-55
2021/04/29 05:09:31;;;;;;;14.00;12.50;;;;;;;;;;3617215;39;20031;-54
2021/04/29 05:11:58;;;;;;;15.70;13.25;;;;;;;;;;3617729;39;20440;-56
2021/04/29 05:14:28;;;;;;;13.23;11.85;;;;;;;;;;3617327;39;20023;-54
2021/04/29 05:16:53;;;;;;;13.75;12.38;;;;;;;;;;3617407;39;20035;-55
2021/04/29 05:19:18;;;;;;;13.43;11.00;;;;;;;;;;3617652;39;20039;-57
2021/04/29 05:21:44;;;;;;;16.10;12.15;;;;;;;;;;3616861;39;20027;-56
2021/04/29 05:24:10;;;;;;;14.45;11.63;;;;;;;;;;3617935;39;20133;-57
2021/04/29 05:26:35;;;;;;;11.25;10.15;;;;;;;;;;3616324;39;20631;-57
2021/04/29 05:29:01;;;;;;;17.05;12.45;;;;;;;;;;3617164;39;20031;-56
2021/04/29 05:31:26;;;;;;;12.52;11.23;;;;;;;;;;3607265;39;20040;-57
2021/04/29 05:33:52;;;;;;;14.13;11.77;;;;;;;;;;3617244;39;20035;-56
2021/04/29 05:36:17;;;;;;;17.70;11.43;;;;;;;;;;3607971;39;20031;-56
2021/04/29 05:38:43;;;;;;;18.38;11.20;;;;;;;;;;3616630;39;20116;-55
2021/04/29 05:41:08;;;;;;;12.40;11.07;;;;;;;;;;3616535;39;20059;-56
2021/04/29 05:43:34;;;;;;;13.38;10.77;;;;;;;;;;3617369;39;20133;-57
2021/04/29 05:45:59;;;;;;;11.80;10.00;;;;;;;;;;3617139;39;20540;-56
2021/04/29 05:48:24;;;;;;;12.27;10.55;;;;;;;;;;3616427;39;20031;-56
2021/04/29 05:50:50;;;;;;;15.63;10.88;;;;;;;;;;3617209;39;20351;-55
2021/04/29 05:53:15;;;;;;;13.55;11.50;;;;;;;;;;3616843;39;20039;-55
2021/04/29 05:55:41;;;;;;;12.63;10.48;;;;;;;;;;3617260;39;20065;-55
2021/04/29 05:58:06;;;;;;;14.27;11.30;;;;;;;;;;3616268;39;20035;-56
2021/04/29 06:00:32;;;;;;;14.02;11.57;;;;;;;;;;3616483;39;20331;-53
2021/04/29 06:02:57;;;;;;;12.85;11.55;;;;;;;;;;3617028;39;20083;-54
2021/04/29 06:05:23;;;;;;;19.27;12.63;;;;;;;;;;3617456;39;20477;-55
2021/04/29 06:07:59;;;;;;;12.90;11.48;;;;;;;;;;3606393;39;20050;-56
2021/04/29 06:10:25;;;;;;;12.85;11.55;;;;;;;;;;3617003;39;20039;-55
2021/04/29 06:12:51;;;;;;;14.23;11.15;;;;;;;;;;3617144;39;20378;-55
2021/04/29 06:15:17;;;;;;;14.05;11.70;;;;;;;;;;3616710;39;20047;-55
2021/04/29 06:17:43;;;;;;;12.75;10.93;;;;;;;;;;3616926;39;20035;-52
2021/04/29 06:20:10;;;;;;;16.05;10.93;;;;;;;;;;3616358;39;20043;-54
2021/04/29 06:22:35;;;;;;;11.95;10.57;;;;;;;;;;3607682;39;20058;-56
2021/04/29 06:25:01;;;;;;;12.30;10.93;;;;;;;;;;3607728;39;20039;-55
2021/04/29 06:27:26;;;;;;;11.93;10.27;;;;;;;;;;3616609;39;20047;-55
2021/04/29 06:29:51;;;;;;;15.20;10.90;;;;;;;;;;3617164;39;20401;-56
2021/04/29 06:32:17;;;;;;;12.00;10.77;;;;;;;;;;3617339;39;20023;-55
2021/04/29 06:34:42;;;;;;;11.70;10.18;;;;;;;;;;3616508;39;20302;-55
2021/04/29 06:37:08;;;;;;;15.82;11.30;;;;;;;;;;3616964;39;20696;-53
2021/04/29 06:39:33;;;;;;;11.93;10.48;;;;;;;;;;3616866;39;20043;-53
2021/04/29 06:41:59;;;;;;;12.32;10.38;;;;;;;;;;3616249;39;20038;-55
2021/04/29 06:44:24;;;;;;;13.60;9.73;;;;;;;;;;3616760;39;20382;-55
2021/04/29 06:46:49;;;;;;;14.27;10.38;;;;;;;;;;3616816;39;20892;-54
2021/04/29 06:49:15;;;;;;;11.80;9.63;;;;;;;;;;3616031;39;20068;-51
2021/04/29 06:51:40;;;;;;;11.40;9.57;;;;;;;;;;3615552;39;20031;-54
2021/04/29 06:54:09;;;;;;;10.95;9.85;;;;;;;;;;3616367;39;20115;-55
2021/04/29 06:56:35;;;;;;;14.55;9.38;;;;;;;;;;3616138;39;20043;-56
2021/04/29 06:59:04;;;;;;;17.70;9.20;;;;;;;;;;3615700;39;20053;-56
2021/04/29 07:01:29;;;;;;;15.40;8.65;;;;;;;;;;3616236;39;20039;-55
2021/04/29 07:03:56;;;;;;;9.90;8.60;;;;;;;;;;3599005;39;20035;-55
2021/04/29 07:06:22;;;;;;;8.18;6.72;;;;;;;;;;3616451;39;20036;-55
2021/04/29 07:08:48;;;;;;;9.85;8.25;;;;;;;;;;3615256;39;20039;-55
2021/04/29 07:11:14;;;;;;;10.15;7.00;;;;;;;;;;3616819;39;20050;-54
2021/04/29 07:13:39;;;;;;;8.15;7.30;;;;;;;;;;3616934;39;20031;-55
2021/04/29 07:16:05;;;;;;;10.18;7.68;;;;;;;;;;3616799;39;20371;-52
2021/04/29 07:18:31;;;;;;;12.88;6.93;;;;;;;;;;3616357;39;20041;-55
2021/04/29 07:20:57;;;;;;;10.30;7.18;;;;;;;;;;3616304;39;20027;-55
2021/04/29 07:23:22;;;;;;;8.43;7.35;;;;;;;;;;3616693;39;20046;-52
2021/04/29 07:25:49;;;;;;;12.82;8.00;;;;;;;;;;3616688;39;20039;-54
2021/04/29 07:28:15;;;;;;;9.48;6.78;;;;;;;;;;3615003;39;20031;-56
2021/04/29 07:30:40;;;;;;;9.55;6.95;;;;;;;;;;3606978;39;20028;-54
2021/04/29 07:33:08;;;;;;;11.68;6.22;;;;;;;;;;3617076;39;20045;-54
2021/04/29 07:35:33;;;;;;;9.15;7.32;;;;;;;;;;3616231;39;20026;-54
2021/04/29 07:37:59;;;;;;;8.18;6.43;;;;;;;;;;3614806;39;20032;-55
2021/04/29 07:40:24;;;;;;;9.30;6.15;;;;;;;;;;3616402;39;20042;-54
2021/04/29 07:42:49;;;;;;;7.80;6.43;;;;;;;;;;3616307;39;20047;-51
2021/04/29 07:45:15;;;;;;;8.63;6.57;;;;;;;;;;3616864;39;20036;-53
2021/04/29 07:47:41;;;;;;;10.77;6.18;;;;;;;;;;3616041;39;20034;-53
2021/04/29 07:50:07;;;;;;;10.52;6.82;;;;;;;;;;3607347;39;20063;-55
2021/04/29 07:52:34;;;;;;;8.27;5.65;;;;;;;;;;3616682;39;20239;-54
2021/04/29 07:54:59;;;;;;;7.25;5.90;;;;;;;;;;3616145;39;20035;-55
2021/04/29 07:57:25;;;;;;;10.98;5.93;;;;;;;;;;3616061;39;20023;-56
2021/04/29 07:59:50;;;;;;;7.10;5.70;;;;;;;;;;3616332;39;20071;-54
2021/04/29 08:02:16;;;;;;;9.40;6.57;;;;;;;;;;3616309;39;20045;-54
2021/04/29 08:04:41;;;;;;;8.35;6.30;;;;;;;;;;3615867;39;20337;-52
2021/04/29 08:07:07;;;;;;;9.93;6.60;;;;;;;;;;3616388;39;20055;-55
2021/04/29 08:09:33;;;;;;;7.68;6.10;;;;;;;;;;3615560;39;20057;-55
2021/04/29 08:11:58;;;;;;;10.25;6.93;;;;;;;;;;3615574;39;20051;-55
2021/04/29 08:14:23;;;;;;;8.55;6.75;;;;;;;;;;3616091;39;20041;-56
2021/04/29 08:16:50;;;;;;;7.78;6.35;;;;;;;;;;3616284;39;20042;-55
2021/04/29 08:19:15;;;;;;;10.27;5.75;;;;;;;;;;3615365;39;20339;-56
2021/04/29 08:21:41;;;;;;;14.68;6.95;;;;;;;;;;3617372;39;20149;-55
2021/04/29 08:24:07;;;;;;;9.98;6.43;;;;;;;;;;3617774;39;20036;-56
2021/04/29 08:26:32;;;;;;;9.43;7.25;;;;;;;;;;3617492;39;20050;-54
2021/04/29 08:28:58;;;;;;;8.50;6.88;;;;;;;;;;3617319;39;20094;-55
2021/04/29 08:31:23;;;;;;;9.20;6.93;;;;;;;;;;3617727;39;20062;-55
2021/04/29 08:33:48;;;;;;;7.10;6.03;;;;;;;;;;3617869;39;20121;-56
2021/04/29 08:36:14;;;;;;;9.98;6.60;;;;;;;;;;3617071;39;20034;-55
2021/04/29 08:38:39;;;;;;;11.52;9.52;;;;;;;;;;3616506;39;20031;-56
2021/04/29 08:41:05;;;;;;;10.52;8.02;;;;;;;;;;3617469;39;20124;-57
2021/04/29 08:43:30;;;;;;;11.15;8.85;;;;;;;;;;3617112;39;20267;-57
2021/04/29 08:45:56;;;;;;;11.50;9.60;;;;;;;;;;3614897;39;20309;-57
2021/04/29 08:48:24;;;;;;;11.32;9.05;;;;;;;;;;3616971;39;20854;-54
2021/04/29 08:50:50;;;;;;;13.55;8.82;;;;;;;;;;3608117;39;20529;-55
2021/04/29 08:53:15;;;;;;;13.73;11.55;;;;;;;;;;3617836;39;20028;-56
2021/04/29 08:55:41;;;;;;;8.90;8.00;;;;;;;;;;3616769;39;20393;-56
2021/04/29 08:58:09;;;;;;;12.60;10.38;;;;;;;;;;3618230;39;20418;-55
2021/04/29 09:00:35;;;;;;;9.75;8.73;;;;;;;;;;3617723;39;20027;-55
2021/04/29 09:03:00;;;;;;;13.07;11.10;;;;;;;;;;3617050;39;20038;-54
2021/04/29 09:05:30;;;;;;;12.40;9.10;;;;;;;;;;3617966;39;20031;-55
2021/04/29 09:08:02;;;;;;;10.10;9.02;;;;;;;;;;3617830;39;20281;-55
2021/04/29 09:10:37;;;;;;;13.43;8.77;;;;;;;;;;3617349;39;20047;-55
2021/04/29 09:13:19;;;;;;;13.55;9.82;;;;;;;;;;3615902;39;20045;-56
2021/04/29 09:15:46;;;;;;;11.45;9.30;;;;;;;;;;3616920;39;20561;-55
2021/04/29 09:18:14;;;;;;;9.82;8.63;;;;;;;;;;3617345;39;20047;-56
2021/04/29 09:20:54;;;;;;;11.88;8.52;;;;;;;;;;3616841;39;20038;-56
2021/04/29 09:23:40;;;;;;;12.38;8.52;;;;;;;;;;3617489;39;20160;-55
2021/04/29 09:26:09;;;;;;;9.88;8.23;;;;;;;;;;3616792;39;21274;-56
2021/04/29 09:28:44;;;;;;;11.43;8.35;;;;;;;;;;3616279;39;20043;-55
2021/04/29 09:31:11;;;;;;;10.55;8.65;;;;;;;;;;3616585;39;20045;-56
2021/04/29 09:33:42;;;;;;;9.93;8.27;;;;;;;;;;3616459;39;20039;-54
2021/04/29 09:36:19;;;;;;;11.57;8.55;;;;;;;;;;3617664;39;20139;-55
2021/04/29 09:39:02;;;;;;;10.05;7.97;;;;;;;;;;3616876;39;20131;-56
2021/04/29 09:41:41;;;;;;;12.60;7.57;;;;;;;;;;3616563;39;20046;-56
2021/04/29 09:44:10;;;;;;;15.45;8.15;;;;;;;;;;3616798;39;20286;-55
2021/04/29 09:46:48;;;;;;;9.55;7.22;;;;;;;;;;3616629;39;20034;-56
2021/04/29 09:49:30;;;;;;;8.88;7.03;;;;;;;;;;3616970;39;20047;-57
2021/04/29 09:51:58;;;;;;;8.18;7.05;;;;;;;;;;3616326;39;20074;-56
2021/04/29 09:54:36;;;;;;;8.93;7.40;;;;;;;;;;3616657;39;20366;-56
2021/04/29 09:57:10;;;;;;;10.25;8.00;;;;;;;;;;3607268;39;20131;-57
2021/04/29 09:59:45;;;;;;;11.93;8.20;;;;;;;;;;3616487;39;20119;-56
2021/04/29 10:02:12;;;;;;;13.20;7.57;;;;;;;;;;3607312;39;20035;-55
2021/04/29 10:04:39;;;;;;;8.85;7.60;;;;;;;;;;3616422;39;20108;-57
2021/04/29 10:07:07;;;;;;;8.77;6.50;;;;;;;;;;3615830;39;20397;-56
2021/04/29 10:09:34;;;;;;;7.43;6.30;;;;;;;;;;3616650;39;20071;-55
2021/04/29 10:12:04;;;;;;;9.38;6.10;;;;;;;;;;3616640;39;20044;-57
2021/04/29 10:14:35;;;;;;;11.32;5.65;;;;;;;;;;3616596;39;20035;-54
2021/04/29 10:17:11;;;;;;;7.20;5.05;;;;;;;;;;3615777;39;20038;-56
2021/04/29 10:19:50;;;;;;;9.40;6.13;;;;;;;;;;3616595;39;20115;-57
2021/04/29 10:22:16;;;;;;;7.75;4.97;;;;;;;;;;3607552;39;20032;-54
2021/04/29 10:24:46;;;;;;;7.13;5.18;;;;;;;;;;3615882;39;20075;-57
2021/04/29 10:27:17;;;;;;;7.75;5.32;;;;;;;;;;3616528;39;20852;-56
2021/04/29 10:29:43;;;;;;;7.90;6.65;;;;;;;;;;3616790;39;20042;-57
2021/04/29 10:32:12;;;;;;;10.85;4.72;;;;;;;;;;3606809;39;20047;-58
2021/04/29 10:34:39;;;;;;;8.52;5.50;;;;;;;;;;3616963;39;20147;-57
2021/04/29 10:37:24;;;;;;;6.22;4.60;;;;;;;;;;3617140;39;20027;-56
2021/04/29 10:40:09;;;;;;;7.97;5.82;;;;;;;;;;3616870;39;20071;-56
2021/04/29 10:42:46;;;;;;;8.98;4.35;;;;;;;;;;3613222;39;20058;-54
2021/04/29 10:45:12;;;;;;;8.18;5.05;;;;;;;;;;3616312;39;20043;-58
2021/04/29 10:47:39;;;;;;;5.00;3.78;;;;;;;;;;3616439;39;20370;-56
2021/04/29 10:50:17;;;;;;;7.07;5.05;;;;;;;;;;3616362;39;20433;-59
2021/04/29 10:52:54;;;;;;;5.43;4.22;;;;;;;;;;3616133;39;20033;-57
2021/04/29 10:55:37;;;;;;;5.78;4.40;;;;;;;;;;3614944;39;20111;-58
2021/04/29 10:58:06;;;;;;;7.88;4.57;;;;;;;;;;3616072;39;20369;-57
2021/04/29 11:00:34;;;;;;;5.38;3.42;;;;;;;;;;3615511;39;20045;-57
2021/04/29 11:03:07;;;;;;;4.25;2.55;;;;;;;;;;3616112;39;20053;-55
2021/04/29 11:05:35;;;;;;;4.30;2.20;;;;;;;;;;3615962;39;20035;-56
2021/04/29 11:08:05;;;;;;;4.15;2.22;;;;;;;;;;3615057;39;20127;-57
2021/04/29 11:10:36;;;;;;;3.03;2.05;;;;;;;;;;3616503;39;20372;-56
2021/04/29 11:13:02;;;;;;;3.40;2.10;;;;;;;;;;3616323;39;20058;-57
2021/04/29 11:15:43;;;;;;;4.22;1.95;;;;;;;;;;3615658;39;20047;-54
2021/04/29 11:18:16;;;;;;;4.47;2.30;;;;;;;;;;3616129;39;20028;-56
2021/04/29 11:20:41;;;;;;;5.68;2.22;;;;;;;;;;3616595;39;20042;-56
2021/04/29 11:23:07;;;;;;;4.43;2.67;;;;;;;;;;3616112;39;20044;-55
2021/04/29 11:25:33;;;;;;;5.47;2.85;;;;;;;;;;3615191;39;20042;-56
2021/04/29 11:27:58;;;;;;;6.20;2.78;;;;;;;;;;3616093;39;20045;-56
2021/04/29 11:30:24;;;;;;;5.68;2.20;;;;;;;;;;3616466;39;20120;-56
2021/04/29 11:32:55;;;;;;;6.30;2.58;;;;;;;;;;3606784;39;20074;-55
2021/04/29 11:35:22;;;;;;;5.93;2.80;;;;;;;;;;3615993;39;20150;-53
2021/04/29 11:37:48;;;;;;;3.80;2.20;;;;;;;;;;3607182;39;20649;-57
2021/04/29 11:40:14;;;;;;;7.80;2.70;;;;;;;;;;3616781;39;20031;-54
2021/04/29 11:42:43;;;;;;;4.88;3.40;;;;;;;;;;3615897;39;20051;-57
2021/04/29 11:45:15;;;;;;;4.63;2.78;;;;;;;;;;3615534;39;20034;-55
2021/04/29 11:47:54;;;;;;;6.88;3.55;;;;;;;;;;3616446;39;20107;-54
2021/04/29 11:50:22;;;;;;;4.72;3.70;;;;;;;;;;3614661;39;20050;-56
2021/04/29 11:52:50;;;;;;;6.07;4.05;;;;;;;;;;3616205;39;20409;-56
2021/04/29 11:55:23;;;;;;;7.22;3.67;;;;;;;;;;3616601;39;20081;-53
2021/04/29 11:57:48;;;;;;;7.40;4.05;;;;;;;;;;3608323;39;20067;-55
2021/04/29 12:00:14;;;;;;;7.32;4.50;;;;;;;;;;3617279;39;20131;-55
2021/04/29 12:02:40;;;;;;;6.30;3.78;;;;;;;;;;3617863;39;20043;-56
2021/04/29 12:05:06;;;;;;;13.88;4.30;;;;;;;;;;3618389;39;20082;-55
2021/04/29 12:07:43;;;;;;;5.63;3.28;;;;;;;;;;3617781;39;20631;-56
2021/04/29 12:10:09;;;;;;;5.70;3.17;;;;;;;;;;3616045;39;20038;-57
2021/04/29 12:12:35;;;;;;;6.28;3.60;;;;;;;;;;3617428;39;20031;-57
2021/04/29 12:15:00;;;;;;;6.10;4.13;;;;;;;;;;3617446;39;20271;-57
2021/04/29 12:17:26;;;;;;;7.60;3.90;;;;;;;;;;3617864;39;20023;-56
2021/04/29 12:19:54;;;;;;;10.75;4.22;;;;;;;;;;3617227;39;20035;-54
2021/04/29 12:22:22;;;;;;;5.07;3.60;;;;;;;;;;3617719;39;20043;-57
2021/04/29 12:24:49;;;;;;;7.55;3.55;;;;;;;;;;3615541;39;20978;-57
2021/04/29 12:27:19;;;;;;;7.60;3.85;;;;;;;;;;3617295;39;20038;-57
2021/04/29 12:29:46;;;;;;;7.05;3.85;;;;;;;;;;3617248;39;20111;-53
2021/04/29 12:32:12;;;;;;;7.90;3.90;;;;;;;;;;3617093;39;20588;-56
2021/04/29 12:34:47;;;;;;;5.80;3.35;;;;;;;;;;3615856;39;20047;-57
2021/04/29 12:37:13;;;;;;;7.20;3.20;;;;;;;;;;3617223;39;20191;-54
2021/04/29 12:39:41;;;;;;;6.55;3.35;;;;;;;;;;3616804;39;20030;-54
2021/04/29 12:42:12;;;;;;;6.50;3.50;;;;;;;;;;3616293;39;20036;-56
2021/04/29 12:44:44;;;;;;;5.03;4.10;;;;;;;;;;3617110;39;20485;-56
2021/04/29 12:47:28;;;;;;;6.53;3.83;;;;;;;;;;3616580;39;20100;-55
2021/04/29 12:50:04;;;;;;;6.88;5.07;;;;;;;;;;3617475;39;20115;-53
2021/04/29 12:52:31;;;;;;;7.53;4.88;;;;;;;;;;3616532;39;20027;-55
2021/04/29 12:54:57;;;;;;;8.18;5.15;;;;;;;;;;3615147;39;20042;-55
2021/04/29 12:57:28;;;;;;;6.43;4.53;;;;;;;;;;3617007;39;20047;-55
2021/04/29 12:59:55;;;;;;;8.02;4.50;;;;;;;;;;3617334;39;20063;-56
2021/04/29 13:02:25;;;;;;;7.88;4.65;;;;;;;;;;3617396;39;20403;-56
2021/04/29 13:05:05;;;;;;;6.47;3.63;;;;;;;;;;3617191;39;20124;-56
2021/04/29 13:07:32;;;;;;;6.13;3.80;;;;;;;;;;3616595;39;20035;-55
2021/04/29 13:09:59;;;;;;;5.65;2.97;;;;;;;;;;3617431;39;20340;-56
2021/04/29 13:12:26;;;;;;;7.25;2.90;;;;;;;;;;3617308;39;20034;-56
2021/04/29 13:15:03;;;;;;;6.40;2.65;;;;;;;;;;3617311;39;20035;-56
2021/04/29 13:17:29;;;;;;;5.78;2.88;;;;;;;;;;3617123;39;20059;-56
2021/04/29 13:19:57;;;;;;;5.15;2.65;;;;;;;;;;3617744;39;20148;-53
2021/04/29 13:22:23;;;;;;;7.45;2.85;;;;;;;;;;3616729;39;20063;-54
2021/04/29 13:24:48;;;;;;;5.70;2.22;;;;;;;;;;3617900;39;20123;-55
2021/04/29 13:27:14;;;;;;;4.93;2.20;;;;;;;;;;3617202;39;20121;-56
2021/04/29 13:29:39;;;;;;;6.05;2.83;;;;;;;;;;3617449;39;20039;-56
2021/04/29 13:32:05;;;;;;;6.35;3.08;;;;;;;;;;3616929;39;20031;-56
2021/04/29 13:34:30;;;;;;;6.43;2.75;;;;;;;;;;3617045;39;20035;-55
2021/04/29 13:36:56;;;;;;;4.97;2.47;;;;;;;;;;3617781;39;20067;-57
2021/04/29 13:39:22;;;;;;;5.00;2.60;;;;;;;;;;3616573;39;20038;-52
2021/04/29 13:41:50;;;;;;;7.93;2.33;;;;;;;;;;3617290;39;20054;-56
2021/04/29 13:44:15;;;;;;;4.25;2.28;;;;;;;;;;3617816;39;20035;-57
2021/04/29 13:46:41;;;;;;;4.55;2.28;;;;;;;;;;3617224;39;20042;-57
2021/04/29 13:49:06;;;;;;;5.35;2.80;;;;;;;;;;3617186;39;20131;-57
2021/04/29 13:51:32;;;;;;;5.65;2.38;;;;;;;;;;3616346;39;20420;-58
2021/04/29 13:53:58;;;;;;;4.50;2.28;;;;;;;;;;3607740;39;20051;-54
2021/04/29 13:56:23;;;;;;;4.03;1.80;;;;;;;;;;3616983;39;20051;-57
2021/04/29 13:58:48;;;;;;;4.82;1.88;;;;;;;;;;3616409;39;20092;-56
2021/04/29 14:01:14;;;;;;;3.28;1.40;;;;;;;;;;3616875;39;20060;-57
2021/04/29 14:03:40;;;;;;;3.58;1.50;;;;;;;;;;3616926;39;20031;-55
2021/04/29 14:06:06;;;;;;;2.72;1.23;;;;;;;;;;3616765;39;20358;-58
2021/04/29 14:08:33;;;;;;;3.55;1.55;;;;;;;;;;3616467;39;20036;-56
2021/04/29 14:10:59;;;;;;;6.15;1.83;;;;;;;;;;3616680;39;20053;-58
2021/04/29 14:13:24;;;;;;;4.30;1.60;;;;;;;;;;3616607;39;20038;-58
2021/04/29 14:15:50;;;;;;;3.47;1.30;;;;;;;;;;3616967;39;20060;-56
2021/04/29 14:18:16;;;;;;;4.68;1.20;;;;;;;;;;3615903;39;20032;-58
2021/04/29 14:20:42;;;;;;;3.22;1.20;;;;;;;;;;3616799;39;20063;-55
2021/04/29 14:23:07;;;;;;;4.00;1.05;;;;;;;;;;3617107;39;20273;-54
2021/04/29 14:25:32;;;;;;;7.35;1.23;;;;;;;;;;3616275;39;20047;-57
2021/04/29 14:27:58;;;;;;;2.30;1.10;;;;;;;;;;3616993;39;20035;-59
2021/04/29 14:30:24;;;;;;;2.20;0.93;;;;;;;;;;3616732;39;20266;-57
2021/04/29 14:32:50;;;;;;;2.05;0.95;;;;;;;;;;3617170;39;20036;-58
2021/04/29 14:35:16;;;;;;;3.35;1.10;;;;;;;;;;3616024;39;20031;-57
2021/04/29 14:37:44;;;;;;;14.57;1.10;;;;;;;;;;3616986;39;20035;-58